createdAt,value
2022-08-22T00:00:33.215Z,5.10
2022-08-22T00:02:55.765Z,5.20
2022-08-22T00:05:24.627Z,4.70
2022-08-22T00:07:33.139Z,4.60
2022-08-22T00:09:38.946Z,4.90
2022-08-22T00:11:45.359Z,4.80
2022-08-22T00:14:01.200Z,5.20
2022-08-22T00:16:09.007Z,4.53
2022-08-22T00:18:16.913Z,4.97
2022-08-22T00:20:28.190Z,4.43
2022-08-22T00:22:34.958Z,4.87
2022-08-22T00:24:40.190Z,4.70
2022-08-22T00:26:45.818Z,5.07
2022-08-22T00:28:50.563Z,4.57
2022-08-22T00:30:55.560Z,4.57
2022-08-22T00:33:00.349Z,4.80
2022-08-22T00:35:12.657Z,4.73
2022-08-22T00:37:19.055Z,4.77
2022-08-22T00:39:23.246Z,4.37
2022-08-22T00:41:34.848Z,4.30
2022-08-22T00:43:55.584Z,4.50
2022-08-22T00:46:10.212Z,4.50
2022-08-22T00:48:20.074Z,4.33
2022-08-22T00:50:38.445Z,4.40
2022-08-22T00:52:56.185Z,4.57
2022-08-22T00:55:05.926Z,4.53
2022-08-22T00:57:18.428Z,4.60
2022-08-22T00:59:30.217Z,4.17
2022-08-22T01:01:34.565Z,4.70
2022-08-22T01:03:51.226Z,4.27
2022-08-22T01:06:02.207Z,4.17
2022-08-22T01:08:13.884Z,3.97
2022-08-22T01:10:29.675Z,4.20
2022-08-22T01:12:42.216Z,4.10
2022-08-22T01:14:47.613Z,4.30
2022-08-22T01:17:11.156Z,3.83
2022-08-22T01:19:38.622Z,4.23
2022-08-22T01:21:54.565Z,4.20
2022-08-22T01:24:12.531Z,4.10
2022-08-22T01:26:41.864Z,4.03
2022-08-22T01:29:10.387Z,3.97
2022-08-22T01:31:32.076Z,3.80
2022-08-22T01:34:02.357Z,4.00
2022-08-22T01:36:17.152Z,4.43
2022-08-22T01:38:27.514Z,4.40
2022-08-22T01:40:54.110Z,3.83
2022-08-22T01:43:05.312Z,3.93
2022-08-22T01:45:26.701Z,4.00
2022-08-22T01:47:31.031Z,3.90
2022-08-22T01:49:44.044Z,3.90
2022-08-22T01:51:48.862Z,3.70
2022-08-22T01:53:57.270Z,3.70
2022-08-22T01:56:01.994Z,4.00
2022-08-22T01:58:06.381Z,4.07
2022-08-22T02:00:10.155Z,4.00
2022-08-22T02:02:22.180Z,3.60
2022-08-22T02:04:32.072Z,3.93
2022-08-22T02:06:41.847Z,3.90
2022-08-22T02:08:49.845Z,3.50
2022-08-22T02:10:58.487Z,3.80
2022-08-22T02:13:05.013Z,3.57
2022-08-22T02:15:14.111Z,3.47
2022-08-22T02:17:20.057Z,3.50
2022-08-22T02:19:28.486Z,3.90
2022-08-22T02:21:40.621Z,3.50
2022-08-22T02:23:48.994Z,3.47
2022-08-22T02:25:55.996Z,3.70
2022-08-22T02:28:03.376Z,3.60
2022-08-22T02:30:08.668Z,3.93
2022-08-22T02:32:18.204Z,3.67
2022-08-22T02:34:29.336Z,3.60
2022-08-22T02:36:34.984Z,3.67
2022-08-22T02:38:39.886Z,3.53
2022-08-22T02:40:45.704Z,3.80
2022-08-22T02:42:50.326Z,3.40
2022-08-22T02:44:58.428Z,3.10
2022-08-22T02:47:04.996Z,3.30
2022-08-22T02:49:10.335Z,3.30
2022-08-22T02:51:16.491Z,2.90
2022-08-22T02:53:21.313Z,3.50
2022-08-22T02:55:32.590Z,3.30
2022-08-22T02:57:39.473Z,3.43
2022-08-22T03:00:01.246Z,3.10
2022-08-22T03:02:28.158Z,4.07
2022-08-22T03:04:46.557Z,3.83
2022-08-22T03:07:04.385Z,3.23
2022-08-22T03:09:09.692Z,3.50
2022-08-22T03:11:16.860Z,3.27
2022-08-22T03:13:26.707Z,3.40
2022-08-22T03:15:34.026Z,3.67
2022-08-22T03:17:40.184Z,3.53
2022-08-22T03:19:49.615Z,3.70
2022-08-22T03:21:55.058Z,3.40
2022-08-22T03:23:59.234Z,2.93
2022-08-22T03:26:07.561Z,3.07
2022-08-22T03:28:12.209Z,3.73
2022-08-22T03:30:19.490Z,3.20
2022-08-22T03:32:23.181Z,3.20
2022-08-22T03:34:26.986Z,3.50
2022-08-22T03:36:31.378Z,3.00
2022-08-22T03:38:47.750Z,3.50
2022-08-22T03:41:01.704Z,3.03
2022-08-22T03:43:18.551Z,3.40
2022-08-22T03:45:39.783Z,3.23
2022-08-22T03:47:57.000Z,3.37
2022-08-22T03:50:17.577Z,3.07
2022-08-22T03:52:29.774Z,3.50
2022-08-22T03:54:44.685Z,3.17
2022-08-22T03:57:01.226Z,3.40
2022-08-22T03:59:16.326Z,3.07
2022-08-22T04:01:33.760Z,3.20
2022-08-22T04:03:48.062Z,3.20
2022-08-22T04:06:03.639Z,3.00
2022-08-22T04:08:28.980Z,2.83
2022-08-22T04:10:40.035Z,2.70
2022-08-22T04:12:59.192Z,3.40
2022-08-22T04:15:18.737Z,3.30
2022-08-22T04:17:36.744Z,2.97
2022-08-22T04:19:50.056Z,2.80
2022-08-22T04:22:15.625Z,2.97
2022-08-22T04:24:32.351Z,3.30
2022-08-22T04:26:41.440Z,2.60
2022-08-22T04:28:47.614Z,3.30
2022-08-22T04:30:52.097Z,3.50
2022-08-22T04:32:59.934Z,3.27
2022-08-22T04:35:06.757Z,2.73
2022-08-22T04:37:13.743Z,3.37
2022-08-22T04:39:18.708Z,2.77
2022-08-22T04:41:24.469Z,2.63
2022-08-22T04:43:31.005Z,3.00
2022-08-22T04:45:35.854Z,3.03
2022-08-22T04:47:40.067Z,3.00
2022-08-22T04:49:46.819Z,2.57
2022-08-22T04:51:51.819Z,3.10
2022-08-22T04:54:07.577Z,3.20
2022-08-22T04:56:14.918Z,2.70
2022-08-22T04:58:25.935Z,3.03
2022-08-22T05:00:36.737Z,2.40
2022-08-22T05:02:40.872Z,2.90
2022-08-22T05:04:46.355Z,3.07
2022-08-22T05:06:50.433Z,2.90
2022-08-22T05:08:53.695Z,2.90
2022-08-22T05:10:56.728Z,2.77
2022-08-22T05:13:00.918Z,2.77
2022-08-22T05:15:06.922Z,2.80
2022-08-22T05:17:15.604Z,2.90
2022-08-22T05:19:29.638Z,3.17
2022-08-22T05:21:37.125Z,2.67
2022-08-22T05:23:42.966Z,3.00
2022-08-22T05:25:46.033Z,2.57
2022-08-22T05:27:49.755Z,2.83
2022-08-22T05:29:59.500Z,2.77
2022-08-22T05:32:04.150Z,2.73
2022-08-22T05:34:07.848Z,3.00
2022-08-22T05:36:12.748Z,3.03
2022-08-22T05:38:18.154Z,3.00
2022-08-22T05:40:23.241Z,3.47
2022-08-22T05:42:27.286Z,3.00
2022-08-22T05:44:32.409Z,2.60
2022-08-22T05:46:39.873Z,3.00
2022-08-22T05:48:44.671Z,2.73
2022-08-22T05:50:50.966Z,2.53
2022-08-22T05:53:00.964Z,2.57
2022-08-22T05:55:14.139Z,3.00
2022-08-22T05:57:20.491Z,2.70
2022-08-22T05:59:24.737Z,2.73
2022-08-22T06:01:29.996Z,2.70
2022-08-22T06:03:36.322Z,2.83
2022-08-22T06:05:40.514Z,2.83
2022-08-22T06:07:44.350Z,3.20
2022-08-22T06:10:14.866Z,2.30
2022-08-22T06:12:22.084Z,2.97
2022-08-22T06:14:30.094Z,2.87
2022-08-22T06:16:36.746Z,2.70
2022-08-22T06:18:41.238Z,3.43
2022-08-22T06:20:45.193Z,3.47
2022-08-22T06:22:51.546Z,3.23
2022-08-22T06:24:54.942Z,3.73
2022-08-22T06:27:02.267Z,3.60
2022-08-22T06:29:05.338Z,4.27
2022-08-22T06:31:10.211Z,4.73
2022-08-22T06:33:14.803Z,4.43
2022-08-22T06:35:20.279Z,4.33
2022-08-22T06:37:27.923Z,4.67
2022-08-22T06:39:32.317Z,4.90
2022-08-22T06:41:37.020Z,5.50
2022-08-22T06:43:43.087Z,5.37
2022-08-22T06:45:45.716Z,5.80
2022-08-22T06:47:51.002Z,5.60
2022-08-22T06:49:57.018Z,6.10
2022-08-22T06:52:01.646Z,5.70
2022-08-22T06:54:07.478Z,6.60
2022-08-22T06:56:10.208Z,6.23
2022-08-22T06:58:14.417Z,6.70
2022-08-22T07:00:18.917Z,7.20
2022-08-22T07:02:24.140Z,7.97
2022-08-22T07:04:26.841Z,7.40
2022-08-22T07:06:31.189Z,8.00
2022-08-22T07:08:38.873Z,6.63
2022-08-22T07:10:42.226Z,7.33
2022-08-22T07:12:47.075Z,7.40
2022-08-22T07:14:51.103Z,8.10
2022-08-22T07:16:57.861Z,8.13
2022-08-22T07:19:00.500Z,7.20
2022-08-22T07:21:08.280Z,7.80
2022-08-22T07:23:13.697Z,7.80
2022-08-22T07:25:19.383Z,8.30
2022-08-22T07:27:37.236Z,8.60
2022-08-22T07:29:44.588Z,7.97
2022-08-22T07:31:50.963Z,8.50
2022-08-22T07:33:55.432Z,8.87
2022-08-22T07:36:00.592Z,8.20
2022-08-22T07:38:09.223Z,9.70
2022-08-22T07:40:16.291Z,8.17
2022-08-22T07:42:19.754Z,8.83
2022-08-22T07:44:25.346Z,8.47
2022-08-22T07:46:30.029Z,8.50
2022-08-22T07:48:34.017Z,8.20
2022-08-22T07:50:41.762Z,8.73
2022-08-22T07:52:45.287Z,8.43
2022-08-22T07:54:50.140Z,8.90
2022-08-22T07:56:55.995Z,9.23
2022-08-22T07:59:02.866Z,9.30
2022-08-22T08:01:09.211Z,9.00
2022-08-22T08:03:11.977Z,10.00
2022-08-22T08:05:14.659Z,9.37
2022-08-22T08:07:20.507Z,9.30
2022-08-22T08:09:23.386Z,8.90
2022-08-22T08:11:27.920Z,9.07
2022-08-22T08:13:32.274Z,8.93
2022-08-22T08:15:36.033Z,9.10
2022-08-22T08:17:38.650Z,9.00
2022-08-22T08:19:42.307Z,8.63
2022-08-22T08:21:49.325Z,9.20
2022-08-22T08:23:53.649Z,8.20
2022-08-22T08:26:01.553Z,8.33
2022-08-22T08:28:15.552Z,8.40
2022-08-22T08:30:22.195Z,7.63
2022-08-22T08:32:25.392Z,8.43
2022-08-22T08:34:28.064Z,8.67
2022-08-22T08:36:38.650Z,8.00
2022-08-22T08:38:43.407Z,7.93
2022-08-22T08:41:07.554Z,8.87
2022-08-22T08:43:25.177Z,8.30
2022-08-22T08:45:37.453Z,8.20
2022-08-22T08:47:47.976Z,8.17
2022-08-22T08:50:04.030Z,7.80
2022-08-22T08:52:18.493Z,7.60
2022-08-22T08:54:31.936Z,7.87
2022-08-22T08:56:37.888Z,6.90
2022-08-22T08:58:43.230Z,8.20
2022-08-22T09:00:51.701Z,7.77
2022-08-22T09:02:58.700Z,8.27
2022-08-22T09:05:13.073Z,8.37
2022-08-22T09:07:27.775Z,7.30
2022-08-22T09:09:43.934Z,7.40
2022-08-22T09:12:05.141Z,7.00
2022-08-22T09:14:15.060Z,7.63
2022-08-22T09:16:28.272Z,7.00
2022-08-22T09:18:44.767Z,7.33
2022-08-22T09:20:52.258Z,7.00
2022-08-22T09:23:20.044Z,7.40
2022-08-22T09:25:24.522Z,6.87
2022-08-22T09:27:32.114Z,7.30
2022-08-22T09:29:54.515Z,7.10
2022-08-22T09:32:13.193Z,7.63
2022-08-22T09:34:24.052Z,7.50
2022-08-22T09:36:32.218Z,7.37
2022-08-22T09:38:48.025Z,7.17
2022-08-22T09:40:53.619Z,7.30
2022-08-22T09:43:02.615Z,6.50
2022-08-22T09:45:33.616Z,6.60
2022-08-22T09:51:04.703Z,6.57
2022-08-22T09:53:24.549Z,6.67
2022-08-22T09:55:38.136Z,6.87
2022-08-22T09:57:45.269Z,6.60
2022-08-22T10:00:11.384Z,6.60
2022-08-22T10:02:21.758Z,6.40
2022-08-22T10:04:34.371Z,6.70
2022-08-22T10:06:42.606Z,7.17
2022-08-22T10:08:47.157Z,6.40
2022-08-22T10:10:59.114Z,6.30
2022-08-22T10:13:04.586Z,6.30
2022-08-22T10:15:18.629Z,7.00
2022-08-22T10:17:25.847Z,7.03
2022-08-22T10:19:33.714Z,6.30
2022-08-22T10:21:40.382Z,7.03
2022-08-22T10:23:46.035Z,6.23
2022-08-22T10:25:50.894Z,6.73
2022-08-22T10:28:00.052Z,6.73
2022-08-22T10:30:06.792Z,6.20
2022-08-22T10:32:17.420Z,5.90
2022-08-22T10:34:21.320Z,6.00
2022-08-22T10:36:31.753Z,6.47
2022-08-22T10:38:46.303Z,6.50
2022-08-22T10:40:53.185Z,5.70
2022-08-22T10:42:59.414Z,6.80
2022-08-22T10:45:24.070Z,6.50
2022-08-22T10:47:45.176Z,5.97
2022-08-22T10:49:51.435Z,6.40
2022-08-22T10:51:56.903Z,5.87
2022-08-22T10:54:19.990Z,6.20
2022-08-22T10:56:27.477Z,5.90
2022-08-22T10:58:33.715Z,5.60
2022-08-22T11:00:46.181Z,5.70
2022-08-22T11:02:55.063Z,6.07
2022-08-22T11:05:14.844Z,5.60
2022-08-22T11:07:37.891Z,5.63
2022-08-22T11:09:43.918Z,5.70
2022-08-22T11:11:48.232Z,6.23
2022-08-22T11:14:06.709Z,6.07
2022-08-22T11:16:18.116Z,5.70
2022-08-22T11:18:26.526Z,6.10
2022-08-22T11:20:32.651Z,5.63
2022-08-22T11:22:39.729Z,5.43
2022-08-22T11:25:11.157Z,5.87
2022-08-22T11:27:20.806Z,5.07
2022-08-22T11:29:29.335Z,5.57
2022-08-22T11:31:36.888Z,5.30
2022-08-22T11:33:47.083Z,5.57
2022-08-22T11:35:53.045Z,5.67
2022-08-22T11:38:00.910Z,5.30
2022-08-22T11:40:14.424Z,5.17
2022-08-22T11:42:21.928Z,5.27
2022-08-22T11:44:28.373Z,4.90
2022-08-22T11:46:33.319Z,5.53
2022-08-22T11:48:39.842Z,5.33
2022-08-22T11:50:45.823Z,4.90
2022-08-22T11:52:54.607Z,4.87
2022-08-22T11:55:07.359Z,5.63
2022-08-22T11:57:11.773Z,4.83
2022-08-22T11:59:17.143Z,4.40
2022-08-22T12:01:22.719Z,5.30
2022-08-22T12:03:32.793Z,5.00
2022-08-22T12:05:40.712Z,5.23
2022-08-22T12:07:50.491Z,4.80
2022-08-22T12:09:55.575Z,4.83
2022-08-22T12:12:10.092Z,4.63
2022-08-22T12:14:18.658Z,4.57
2022-08-22T12:16:25.460Z,4.40
2022-08-22T12:18:37.891Z,4.10
2022-08-22T12:20:52.228Z,4.30
2022-08-22T12:23:04.748Z,4.50
2022-08-22T12:25:12.572Z,4.27
2022-08-22T12:27:28.709Z,4.13
2022-08-22T12:29:39.807Z,4.23
2022-08-22T12:32:13.406Z,4.40
2022-08-22T12:34:17.970Z,4.40
2022-08-22T12:36:28.826Z,3.97
2022-08-22T12:38:43.792Z,4.27
2022-08-22T12:40:51.995Z,4.40
2022-08-22T12:43:03.470Z,4.10
2022-08-22T12:45:17.954Z,4.40
2022-08-22T12:47:32.115Z,4.47
2022-08-22T12:49:49.861Z,4.23
2022-08-22T12:52:04.220Z,4.20
2022-08-22T12:54:20.358Z,4.03
2022-08-22T12:56:29.782Z,4.53
2022-08-22T12:58:42.166Z,4.57
2022-08-22T13:00:47.143Z,4.13
2022-08-22T13:02:52.905Z,4.00
2022-08-22T13:04:57.247Z,3.70
2022-08-22T13:07:08.212Z,4.03
2022-08-22T13:09:16.226Z,4.23
2022-08-22T13:11:22.879Z,4.00
2022-08-22T13:13:31.638Z,3.97
2022-08-22T13:15:42.246Z,3.57
2022-08-22T13:17:46.373Z,4.20
2022-08-22T13:19:56.572Z,4.30
2022-08-22T13:22:00.764Z,4.23
2022-08-22T13:24:06.075Z,3.80
2022-08-22T13:26:31.902Z,4.03
2022-08-22T13:28:42.971Z,3.93
2022-08-22T13:30:45.617Z,4.40
2022-08-22T13:32:52.589Z,4.17
2022-08-22T13:34:56.702Z,3.77
2022-08-22T13:37:00.495Z,3.90
2022-08-22T13:39:06.791Z,3.70
2022-08-22T13:41:09.412Z,4.13
2022-08-22T13:43:18.866Z,4.10
2022-08-22T13:45:23.970Z,4.40
2022-08-22T13:47:31.780Z,4.13
2022-08-22T13:49:35.757Z,3.83
2022-08-22T13:51:41.621Z,3.83
2022-08-22T13:53:50.074Z,3.67
2022-08-22T13:56:07.125Z,4.00
2022-08-22T13:58:24.953Z,3.50
2022-08-22T14:00:57.972Z,4.30
2022-08-22T14:03:01.455Z,4.10
2022-08-22T14:05:11.387Z,3.97
2022-08-22T14:07:24.121Z,4.27
2022-08-22T14:09:32.673Z,4.10
2022-08-22T14:11:39.039Z,4.37
2022-08-22T14:13:44.377Z,4.57
2022-08-22T14:15:47.216Z,4.13
2022-08-22T14:17:49.926Z,4.53
2022-08-22T14:19:59.294Z,4.00
2022-08-22T14:22:03.964Z,3.77
2022-08-22T14:24:13.586Z,3.73
2022-08-22T14:26:32.654Z,4.33
2022-08-22T14:28:36.482Z,3.80
2022-08-22T14:31:00.809Z,4.20
2022-08-22T14:33:11.862Z,4.60
2022-08-22T14:35:23.116Z,4.23
2022-08-22T14:37:29.937Z,4.30
2022-08-22T14:39:36.768Z,3.87
2022-08-22T14:41:52.986Z,4.17
2022-08-22T14:44:00.884Z,4.23
2022-08-22T14:46:07.989Z,4.73
2022-08-22T14:48:30.921Z,4.47
2022-08-22T14:50:39.268Z,4.70
2022-08-22T14:52:43.262Z,4.07
2022-08-22T14:54:46.876Z,5.43
2022-08-22T14:56:53.488Z,5.47
2022-08-22T14:58:58.504Z,4.43
2022-08-22T15:01:09.802Z,3.97
2022-08-22T15:03:16.607Z,4.23
2022-08-22T15:05:22.736Z,4.00
2022-08-22T15:07:26.509Z,4.90
2022-08-22T15:09:31.973Z,4.40
2022-08-22T15:11:35.036Z,4.30
2022-08-22T15:13:38.037Z,4.67
2022-08-22T15:15:52.796Z,4.50
2022-08-22T15:17:59.111Z,4.13
2022-08-22T15:20:10.945Z,4.43
2022-08-22T15:22:21.864Z,4.70
2022-08-22T15:24:28.513Z,4.43
2022-08-22T15:26:33.471Z,5.30
2022-08-22T15:28:53.107Z,4.47
2022-08-22T15:31:03.736Z,4.67
2022-08-22T15:33:12.726Z,5.70
2022-08-22T15:35:17.812Z,5.10
2022-08-22T15:37:29.291Z,4.83
2022-08-22T15:39:36.032Z,4.87
2022-08-22T15:41:44.775Z,4.97
2022-08-22T15:43:48.701Z,5.23
2022-08-22T15:45:52.486Z,5.50
2022-08-22T15:47:55.710Z,5.40
2022-08-22T15:50:05.686Z,5.40
2022-08-22T15:52:15.230Z,4.50
2022-08-22T15:54:25.316Z,6.03
2022-08-22T15:56:29.338Z,5.47
2022-08-22T15:58:32.267Z,4.90
2022-08-22T16:00:43.494Z,4.70
2022-08-22T16:02:56.826Z,4.80
2022-08-22T16:05:20.212Z,5.00
2022-08-22T16:07:26.603Z,5.53
2022-08-22T16:09:33.115Z,5.20
2022-08-22T16:11:37.987Z,5.00
2022-08-22T16:13:43.192Z,5.30
2022-08-22T16:15:57.322Z,4.80
2022-08-22T16:18:00.011Z,5.50
2022-08-22T16:20:29.924Z,5.90
2022-08-22T16:23:02.684Z,5.83
2022-08-22T16:25:10.326Z,5.07
2022-08-22T16:27:18.420Z,5.50
2022-08-22T16:29:31.967Z,5.13
2022-08-22T16:31:42.904Z,5.83
2022-08-22T16:33:45.538Z,5.70
2022-08-22T16:36:14.858Z,5.70
2022-08-22T16:38:23.478Z,5.30
2022-08-22T16:40:27.722Z,5.20
2022-08-22T16:42:35.923Z,5.70
2022-08-22T16:44:42.759Z,5.17
2022-08-22T16:46:46.086Z,4.93
2022-08-22T16:48:48.718Z,5.30
2022-08-22T16:51:06.421Z,5.40
2022-08-22T16:53:11.109Z,5.90
2022-08-22T16:55:41.626Z,5.60
2022-08-22T16:58:05.413Z,5.23
2022-08-22T17:00:12.282Z,5.40
2022-08-22T17:02:25.509Z,5.73
2022-08-22T17:04:36.534Z,5.83
2022-08-22T17:06:48.035Z,5.73
2022-08-22T17:08:56.884Z,5.80
2022-08-22T17:11:05.549Z,5.10
2022-08-22T17:13:15.804Z,4.93
2022-08-22T17:15:25.253Z,4.57
2022-08-22T17:17:35.491Z,5.30
2022-08-22T17:19:46.141Z,6.00
2022-08-22T17:21:52.081Z,5.23
2022-08-22T17:24:01.405Z,5.93
2022-08-22T17:26:14.372Z,5.00
2022-08-22T17:28:20.924Z,5.07
2022-08-22T17:30:25.852Z,4.83
2022-08-22T17:32:36.649Z,5.40
2022-08-22T17:34:40.215Z,5.23
2022-08-22T17:36:52.997Z,5.20
2022-08-22T17:39:03.078Z,5.57
2022-08-22T17:41:12.666Z,5.20
2022-08-22T17:43:26.827Z,5.23
2022-08-22T17:45:36.192Z,4.70
2022-08-22T17:47:41.667Z,5.10
2022-08-22T17:49:51.515Z,5.17
2022-08-22T17:51:58.413Z,5.27
2022-08-22T17:54:04.169Z,5.10
2022-08-22T17:56:15.380Z,4.97
2022-08-22T17:58:37.969Z,5.70
2022-08-22T18:00:53.305Z,5.47
2022-08-22T18:02:57.426Z,5.23
2022-08-22T18:05:04.451Z,5.70
2022-08-22T18:07:26.956Z,5.00
2022-08-22T18:09:32.735Z,5.30
2022-08-22T18:11:40.590Z,5.23
2022-08-22T18:13:49.604Z,5.30
2022-08-22T18:15:55.379Z,5.20
2022-08-22T18:18:01.826Z,4.70
2022-08-22T18:20:08.167Z,5.30
2022-08-22T18:22:13.061Z,5.03
2022-08-22T18:24:31.294Z,4.60
2022-08-22T18:26:44.934Z,4.47
2022-08-22T18:28:50.943Z,5.03
2022-08-22T18:30:57.117Z,5.17
2022-08-22T18:33:02.080Z,5.13
2022-08-22T18:35:08.927Z,5.90
2022-08-22T18:37:18.007Z,5.83
2022-08-22T18:39:24.890Z,4.90
2022-08-22T18:41:32.757Z,5.30
2022-08-22T18:43:38.903Z,4.90
2022-08-22T18:45:57.391Z,5.33
2022-08-22T18:48:02.851Z,5.40
2022-08-22T18:50:27.806Z,4.90
2022-08-22T18:52:39.580Z,5.30
2022-08-22T18:54:51.402Z,4.40
2022-08-22T18:56:57.353Z,4.77
2022-08-22T18:59:05.231Z,4.90
2022-08-22T19:01:19.951Z,5.00
2022-08-22T19:03:32.142Z,4.60
2022-08-22T19:05:43.721Z,4.80
2022-08-22T19:07:56.296Z,5.23
2022-08-22T19:10:11.161Z,4.83
2022-08-22T19:12:22.926Z,4.60
2022-08-22T19:14:35.850Z,4.63
2022-08-22T19:16:51.378Z,5.10
2022-08-22T19:19:00.734Z,4.60
2022-08-22T19:21:28.384Z,4.90
2022-08-22T19:23:45.295Z,5.03
2022-08-22T19:26:18.308Z,5.70
2022-08-22T19:28:25.113Z,5.20
2022-08-22T19:30:42.397Z,5.40
2022-08-22T19:33:00.419Z,4.87
2022-08-22T19:35:15.940Z,5.33
2022-08-22T19:37:30.682Z,4.33
2022-08-22T19:39:50.465Z,4.90
2022-08-22T19:41:58.411Z,4.03
2022-08-22T19:44:01.239Z,4.57
2022-08-22T19:46:08.015Z,4.60
2022-08-22T19:48:14.184Z,4.33
2022-08-22T19:50:26.690Z,4.40
2022-08-22T19:52:43.814Z,4.53
2022-08-22T19:54:49.706Z,4.77
2022-08-22T19:57:02.641Z,4.60
2022-08-22T19:59:12.379Z,4.57
2022-08-22T20:01:30.114Z,4.60
2022-08-22T20:03:42.020Z,4.47
2022-08-22T20:05:57.157Z,4.10
2022-08-22T20:08:11.492Z,4.50
2022-08-22T20:10:21.591Z,4.33
2022-08-22T20:12:28.520Z,4.27
2022-08-22T20:14:32.575Z,4.20
2022-08-22T20:17:00.764Z,4.30
2022-08-22T20:19:17.339Z,4.40
2022-08-22T20:21:39.013Z,4.63
2022-08-22T20:23:41.890Z,4.40
2022-08-22T20:25:48.544Z,4.30
2022-08-22T20:27:52.607Z,4.50
2022-08-22T20:29:56.409Z,4.60
2022-08-22T20:32:00.443Z,4.50
2022-08-22T20:34:04.593Z,4.33
2022-08-22T20:36:18.573Z,4.60
2022-08-22T20:38:33.252Z,4.10
2022-08-22T20:40:57.346Z,4.67
2022-08-22T20:43:03.722Z,4.63
2022-08-22T20:45:17.178Z,4.27
2022-08-22T20:47:23.869Z,4.70
2022-08-22T20:49:29.363Z,4.37
2022-08-22T20:51:32.901Z,4.57
2022-08-22T20:53:35.562Z,4.50
2022-08-22T20:55:38.513Z,4.07
2022-08-22T20:57:46.153Z,4.57
2022-08-22T20:59:51.525Z,4.60
2022-08-22T21:01:57.758Z,4.60
2022-08-22T21:04:03.118Z,4.43
2022-08-22T21:06:11.831Z,4.30
2022-08-22T21:08:15.443Z,4.33
2022-08-22T21:10:31.202Z,4.47
2022-08-22T21:12:33.869Z,4.63
2022-08-22T21:14:44.227Z,4.00
2022-08-22T21:16:46.904Z,4.70
2022-08-22T21:18:50.636Z,4.93
2022-08-22T21:20:54.921Z,4.90
2022-08-22T21:23:01.608Z,4.83
2022-08-22T21:25:45.680Z,4.47
2022-08-22T21:27:49.079Z,4.87
2022-08-22T21:29:51.806Z,4.67
2022-08-22T21:31:59.072Z,5.03
2022-08-22T21:34:13.273Z,5.47
2022-08-22T21:36:19.952Z,5.60
2022-08-22T21:38:22.693Z,4.73
2022-08-22T21:40:31.483Z,5.03
2022-08-22T21:42:35.751Z,5.37
2022-08-22T21:44:39.641Z,4.83
2022-08-22T21:46:42.344Z,5.10
2022-08-22T21:48:58.962Z,5.30
2022-08-22T21:51:24.856Z,4.70
2022-08-22T21:53:28.601Z,5.97
2022-08-22T21:55:35.026Z,4.83
2022-08-22T21:57:38.318Z,5.60
2022-08-22T21:59:51.498Z,5.60
2022-08-22T22:02:20.457Z,4.80
2022-08-22T22:04:24.205Z,4.93
2022-08-22T22:06:28.459Z,5.40
2022-08-22T22:08:31.506Z,5.43
2022-08-22T22:10:34.423Z,5.43
2022-08-22T22:12:39.567Z,5.67
2022-08-22T22:14:43.392Z,5.60
2022-08-22T22:16:46.230Z,5.87
2022-08-22T22:18:48.854Z,5.23
2022-08-22T22:20:52.127Z,5.60
2022-08-22T22:22:56.444Z,5.90
2022-08-22T22:24:59.085Z,5.60
2022-08-22T22:27:02.173Z,5.37
2022-08-22T22:29:05.663Z,5.83
2022-08-22T22:31:11.503Z,6.10
2022-08-22T22:33:14.107Z,5.70
2022-08-22T22:35:17.063Z,5.80
2022-08-22T22:37:20.067Z,6.07
2022-08-22T22:39:24.511Z,6.20
2022-08-22T22:41:27.724Z,6.00
2022-08-22T22:43:30.401Z,5.33
2022-08-22T22:45:35.127Z,5.40
2022-08-22T22:47:37.833Z,5.33
2022-08-22T22:49:40.511Z,5.50
2022-08-22T22:51:43.096Z,5.60
2022-08-22T22:53:46.135Z,5.33
2022-08-22T22:55:59.755Z,6.10
2022-08-22T22:58:03.243Z,5.60
2022-08-22T23:00:07.395Z,5.53
2022-08-22T23:02:12.226Z,5.93
2022-08-22T23:04:14.869Z,5.50
2022-08-22T23:06:18.480Z,5.87
2022-08-22T23:08:21.131Z,5.80
2022-08-22T23:10:24.191Z,5.60
2022-08-22T23:12:28.245Z,5.43
2022-08-22T23:14:30.917Z,6.23
2022-08-22T23:16:37.263Z,6.60
2022-08-22T23:18:40.752Z,5.40
2022-08-22T23:20:43.382Z,5.60
2022-08-22T23:22:46.130Z,5.47
2022-08-22T23:24:49.848Z,5.53
2022-08-22T23:26:52.909Z,5.50
2022-08-22T23:28:57.218Z,5.23
2022-08-22T23:31:10.050Z,5.10
2022-08-22T23:33:12.718Z,5.20
2022-08-22T23:35:15.902Z,4.73
2022-08-22T23:37:20.787Z,5.50
2022-08-22T23:39:24.071Z,5.00
2022-08-22T23:41:26.852Z,5.23
2022-08-22T23:43:30.094Z,5.30
2022-08-22T23:45:34.013Z,5.40
2022-08-22T23:47:36.666Z,5.40
2022-08-22T23:49:39.463Z,5.00
2022-08-22T23:51:42.732Z,5.40
2022-08-22T23:53:45.387Z,5.20
2022-08-22T23:55:48.017Z,4.77
2022-08-22T23:57:51.353Z,5.27
2022-08-22T23:59:57.837Z,4.80
